Musselshell, Montana
Current Conditions -  °F | °C
As of 6:35 AM on Friday 24 Oct 2014 (Local Time) from KMVH Reporting Station
Overcast Overcast  
Wind Chill: 52°   Ceiling: 7000
Heat Index: 52°   Visibility: 10mi
Dew Point: 36°   Wind: 10mph
Humidity: 54%   Direction: 320°NW
Pressure: 29.99"   Gusts: 17mph
Location:  46.52°N, 108.09°W
Report Text: KMVH 241235Z AUTO 32009G15KT 10SM OVC070 11/02 A2999 RMK A01
Loading
Personal Weather Stations






























Interactive Weather Map
Tropical Storm Tracking
New forecast layout! Learn more

10-Day Weather Forecast

Advertisements
Track Severe Weather on mobile